Time;durP1;ratioP1;P1;durP2;ratioP2;P2;SDS_P1;SDS_P2;PMS_P1;PMS_P2;Temp;Humidity;BMP_temperature;BMP_pressure;BME280_temperature;BME280_humidity;BME280_pressure;Samples;Min_cycle;Max_cycle;Signal;HPM_P1;HPM_P2
2022/01/16 00:04:07;;;;;;;87.20;33.95;;;;;;;-0.57;100.00;100058.85;4133774;84;43574;-77
2022/01/16 00:10:10;;;;;;;79.60;31.87;;;;;;;-0.78;100.00;100060.21;4134220;84;43124;-79
2022/01/16 00:16:13;;;;;;;83.03;33.08;;;;;;;-0.59;100.00;100056.33;4135649;85;43081;-77
2022/01/16 00:22:15;;;;;;;78.17;31.33;;;;;;;-0.54;100.00;100059.89;4131407;84;43080;-79
2022/01/16 00:28:17;;;;;;;81.32;32.70;;;;;;;-0.64;100.00;100033.46;4135365;85;43175;-78
2022/01/16 00:34:18;;;;;;;79.00;31.48;;;;;;;-0.74;100.00;100033.91;4135845;85;43780;-78
2022/01/16 00:40:19;;;;;;;74.50;30.88;;;;;;;-0.96;100.00;100058.67;4135492;84;44125;-79
2022/01/16 00:46:21;;;;;;;73.83;28.60;;;;;;;-1.24;100.00;99997.70;4133695;84;44541;-77
2022/01/16 00:52:22;;;;;;;70.80;28.92;;;;;;;-1.31;100.00;100031.19;4129774;84;44110;-78
2022/01/16 00:58:24;;;;;;;76.45;29.12;;;;;;;-1.22;100.00;100049.86;4134459;84;44145;-77
2022/01/16 01:04:25;;;;;;;75.65;29.10;;;;;;;-1.23;100.00;100038.45;4128868;85;43727;-78
2022/01/16 01:10:32;;;;;;;70.30;30.17;;;;;;;-1.20;100.00;100037.36;4129910;84;44141;-79
2022/01/16 01:16:50;;;;;;;78.70;29.13;;;;;;;-1.42;100.00;100056.32;4130196;84;28516;-77
2022/01/16 01:22:38;;;;;;;77.87;29.57;;;;;;;-1.57;100.00;100007.82;4131237;84;43511;-80
2022/01/16 01:28:39;;;;;;;75.05;30.57;;;;;;;-1.47;100.00;100003.09;4130586;84;44114;-77
2022/01/16 01:34:40;;;;;;;71.80;28.65;;;;;;;-1.45;100.00;100003.33;4131246;84;44153;-77
2022/01/16 01:40:42;;;;;;;72.82;28.92;;;;;;;-1.55;100.00;99917.56;4131210;84;44101;-78
2022/01/16 01:53:05;;;;;;;68.52;28.17;;;;;;;-1.71;100.00;99870.56;4128748;84;44153;-77
2022/01/16 01:59:08;;;;;;;73.22;30.85;;;;;;;-1.89;100.00;99918.25;4137833;84;44157;-72
2022/01/16 02:05:10;;;;;;;84.03;30.10;;;;;;;-1.85;100.00;99917.02;4142848;84;43080;-72
2022/01/16 02:11:14;;;;;;;73.20;28.73;;;;;;;-1.98;100.00;99939.13;4139872;84;44125;-71
2022/01/16 02:35:46;;;;;;;81.42;31.55;;;;;;;-2.33;100.00;99953.89;4122832;84;43116;-72
2022/01/16 02:41:47;;;;;;;75.72;29.85;;;;;;;-2.12;100.00;99955.27;4134646;84;43692;-71
2022/01/16 02:47:48;;;;;;;75.75;29.30;;;;;;;-2.12;100.00;99952.63;4139060;84;44117;-71
2022/01/16 02:53:50;;;;;;;77.08;31.37;;;;;;;-2.15;100.00;99930.45;4140335;84;44137;-71
2022/01/16 02:59:56;;;;;;;77.82;29.82;;;;;;;-2.16;100.00;99931.42;4125718;84;43822;-71
2022/01/16 03:05:57;;;;;;;;;;;;;;;-2.26;100.00;99929.55;4146431;84;28562;-71
2022/01/16 03:11:58;;;;;;;69.67;28.17;;;;;;;-2.40;100.00;99939.06;4139451;83;44196;-71
2022/01/16 03:24:03;;;;;;;74.27;29.02;;;;;;;-2.29;100.00;99927.17;4138831;84;44153;-71
2022/01/16 03:30:07;;;;;;;80.10;30.02;;;;;;;-2.40;100.00;99921.95;4142029;84;42994;-71
2022/01/16 03:36:08;;;;;;;80.43;31.13;;;;;;;-2.28;100.00;99925.39;4143021;84;28526;-70
2022/01/16 03:42:10;;;;;;;77.17;31.65;;;;;;;-2.38;100.00;99912.12;4135746;84;43514;-71
2022/01/16 03:48:14;;;;;;;82.10;31.52;;;;;;;-2.24;100.00;99895.18;4130544;84;43079;-71
2022/01/16 03:54:18;;;;;;;84.45;31.77;;;;;;;-2.24;100.00;99893.86;4139018;84;43064;-71
2022/01/16 04:00:20;;;;;;;78.10;31.97;;;;;;;-2.40;100.00;99883.75;4141952;84;28552;-71
2022/01/16 04:06:21;;;;;;;74.32;29.85;;;;;;;-2.41;100.00;99868.92;4142993;84;44151;-72
2022/01/16 04:12:24;;;;;;;77.08;29.50;;;;;;;-2.61;100.00;99856.91;4142721;84;43466;-72
2022/01/16 04:18:25;;;;;;;71.28;27.98;;;;;;;-2.75;100.00;99865.10;4141313;84;44078;-73
2022/01/16 04:24:27;;;;;;;72.70;29.25;;;;;;;-2.64;100.00;99859.80;4141345;84;44525;-72
2022/01/16 04:30:28;;;;;;;80.10;30.45;;;;;;;-2.72;100.00;99854.31;4140985;84;43818;-71
2022/01/16 04:36:30;;;;;;;82.00;31.42;;;;;;;-2.62;100.00;99857.87;4141896;84;43107;-71
2022/01/16 04:48:37;;;;;;;70.22;28.02;;;;;;;-2.90;100.00;99846.94;4098034;85;44118;-73
2022/01/16 04:54:39;;;;;;;70.32;27.73;;;;;;;-2.83;100.00;99846.81;4108439;85;44107;-73
2022/01/16 05:00:41;;;;;;;73.02;28.95;;;;;;;-2.59;100.00;99856.79;4106324;85;44075;-72
2022/01/16 05:06:42;;;;;;;76.82;29.63;;;;;;;-2.94;100.00;99847.66;4080864;85;44134;-73
2022/01/16 05:12:47;;;;;;;87.85;32.00;;;;;;;-2.87;100.00;99830.89;4094496;85;43416;-71
2022/01/16 05:18:47;;;;;;;79.22;31.62;;;;;;;-2.91;100.00;99822.91;4107021;85;42698;-72
2022/01/16 05:24:48;;;;;;;84.37;31.40;;;;;;;-3.03;100.00;99822.58;4037861;87;43088;-72
2022/01/16 05:30:50;;;;;;;77.42;30.60;;;;;;;-3.10;100.00;99821.75;4107969;85;43542;-72
2022/01/16 05:36:52;;;;;;;68.47;28.55;;;;;;;-3.06;100.00;99819.71;4106226;85;44126;-71
2022/01/16 05:42:54;;;;;;;75.37;30.92;;;;;;;-3.18;100.00;99816.26;4105302;85;43696;-75
2022/01/16 05:48:55;;;;;;;77.35;31.90;;;;;;;-3.02;100.00;99797.94;4120157;85;43435;-73
2022/01/16 05:54:56;;;;;;;79.32;31.82;;;;;;;-2.99;100.00;99804.26;4121944;84;42646;-72
2022/01/16 06:00:57;;;;;;;69.53;30.72;;;;;;;-3.01;100.00;99800.92;4147548;84;44152;-72
2022/01/16 06:07:00;;;;;;;73.70;31.50;;;;;;;-2.98;100.00;99804.61;4147674;84;44144;-71
2022/01/16 06:13:07;;;;;;;71.75;30.40;;;;;;;-3.10;100.00;99804.64;4147836;84;44066;-71
2022/01/16 06:19:08;;;;;;;73.87;30.97;;;;;;;-3.38;100.00;99809.97;4161428;84;44127;-70
2022/01/16 06:25:12;;;;;;;79.80;32.70;;;;;;;-3.25;100.00;99811.16;4148719;84;43001;-72
2022/01/16 06:31:13;;;;;;;77.08;31.93;;;;;;;-3.38;100.00;99792.88;4149799;84;43696;-72
2022/01/16 06:37:14;;;;;;;78.60;31.65;;;;;;;-3.16;100.00;99785.43;4148674;84;43601;-73
2022/01/16 06:43:15;;;;;;;80.32;31.90;;;;;;;-3.23;100.00;99782.93;4151248;84;43040;-73
2022/01/16 06:49:18;;;;;;;76.17;31.85;;;;;;;-3.25;100.00;99776.47;4135211;84;43661;-71
2022/01/16 06:55:20;;;;;;;77.00;31.35;;;;;;;-3.29;100.00;99787.35;4112185;85;43518;-72
2022/01/16 07:01:21;;;;;;;73.33;32.13;;;;;;;-3.21;100.00;99781.00;4111993;85;44099;-72
2022/01/16 07:07:22;;;;;;;79.30;31.55;;;;;;;-3.27;100.00;99784.14;4111576;85;42947;-74
2022/01/16 07:13:24;;;;;;;78.17;31.93;;;;;;;-3.20;100.00;99775.28;4111618;85;43752;-69
2022/01/16 07:19:25;;;;;;;76.85;32.55;;;;;;;-3.10;100.00;99761.73;4127251;85;43262;-71
2022/01/16 07:25:27;;;;;;;73.92;30.00;;;;;;;-2.96;100.00;99737.75;4112023;85;44142;-72
2022/01/16 07:31:30;;;;;;;75.87;31.25;;;;;;;-3.05;100.00;99733.23;4111257;85;44141;-72
2022/01/16 07:37:31;;;;;;;70.42;28.42;;;;;;;-2.84;100.00;99726.70;4111720;85;44110;-74
2022/01/16 07:43:32;;;;;;;66.45;25.48;;;;;;;-2.75;100.00;99726.41;4103594;85;42888;-73
2022/01/16 07:49:34;;;;;;;63.33;26.10;;;;;;;-2.41;100.00;99742.00;4103944;85;42917;-70
2022/01/16 07:55:36;;;;;;;62.25;26.05;;;;;;;-2.45;100.00;99734.02;4095902;85;42943;-73
2022/01/16 08:01:37;;;;;;;61.05;24.45;;;;;;;-2.03;100.00;99724.38;4105622;85;43960;-73
2022/01/16 08:07:38;;;;;;;71.75;26.93;;;;;;;-1.56;100.00;99714.60;4110440;85;43952;-72
2022/01/16 08:13:40;;;;;;;66.80;26.65;;;;;;;-1.75;100.00;99714.08;4107717;85;43673;-70
2022/01/16 08:19:41;;;;;;;73.92;29.80;;;;;;;-1.47;100.00;99719.06;4107882;85;44117;-70
2022/01/16 08:25:43;;;;;;;79.20;31.68;;;;;;;-1.54;100.00;99710.02;4095826;85;43023;-72
2022/01/16 08:31:44;;;;;;;73.02;31.62;;;;;;;-1.36;100.00;99696.17;4105824;85;44138;-72
2022/01/16 08:37:45;;;;;;;65.65;27.98;;;;;;;-1.16;100.00;99687.77;4097370;85;43834;-70
2022/01/16 08:43:47;;;;;;;70.67;29.40;;;;;;;-1.30;100.00;99685.89;4096836;85;44090;-72
2022/01/16 08:49:49;;;;;;;74.32;31.37;;;;;;;-1.05;100.00;99663.86;4127254;84;44099;-77
2022/01/16 08:55:50;;;;;;;74.77;30.40;;;;;;;-1.08;100.00;99640.40;4139620;84;44130;-73
2022/01/16 09:01:52;;;;;;;67.45;29.55;;;;;;;-0.88;100.00;99637.73;4144844;84;44117;-76
2022/01/16 09:07:54;;;;;;;71.70;30.62;;;;;;;-0.56;100.00;99625.97;4133834;84;44123;-80
2022/01/16 09:13:58;;;;;;;71.35;29.63;;;;;;;-0.41;100.00;99618.92;4151846;84;44125;-79
2022/01/16 09:19:59;;;;;;;66.07;29.65;;;;;;;-0.36;100.00;99607.41;4149463;84;43726;-78
2022/01/16 09:26:00;;;;;;;75.57;31.77;;;;;;;-0.65;100.00;99594.67;4145156;84;43691;-81
2022/01/16 09:32:04;;;;;;;74.10;30.40;;;;;;;-0.69;100.00;99579.25;4134616;84;44076;-81
2022/01/16 09:38:06;;;;;;;78.15;31.68;;;;;;;-0.36;100.00;99562.48;4152646;84;43553;-81
2022/01/16 09:44:11;;;;;;;74.63;31.30;;;;;;;-0.63;100.00;99566.30;4153742;84;33597;-79
2022/01/16 09:50:24;;;;;;;74.27;31.20;;;;;;;-0.39;100.00;99555.68;4146913;84;44146;-71
2022/01/16 09:56:25;;;;;;;63.33;27.85;;;;;;;-0.44;100.00;99553.48;4150361;84;43434;-72
2022/01/16 10:02:26;;;;;;;66.85;29.32;;;;;;;0.07;100.00;99545.61;4158528;84;44290;-74
2022/01/16 10:08:28;;;;;;;66.00;27.87;;;;;;;0.32;100.00;99527.31;4164456;84;43750;-75
2022/01/16 10:14:37;;;;;;;62.33;27.32;;;;;;;0.38;100.00;99515.63;4148620;84;43451;-84
2022/01/16 10:20:46;;;;;;;63.55;26.05;;;;;;;0.50;100.00;99506.97;4144025;84;42892;-80
2022/01/16 10:26:50;;;;;;;59.67;25.00;;;;;;;0.79;100.00;99497.05;4141682;84;43458;-78
2022/01/16 10:32:51;;;;;;;58.85;25.23;;;;;;;0.87;100.00;99494.46;4142672;84;28539;-80
2022/01/16 10:39:10;;;;;;;59.40;24.55;;;;;;;1.08;100.00;99494.58;4157273;83;43362;-80
2022/01/16 10:45:14;;;;;;;54.70;22.98;;;;;;;1.15;100.00;99472.25;4029055;85;44099;-77
2022/01/16 10:51:20;;;;;;;52.10;23.12;;;;;;;1.40;100.00;99467.87;4051032;85;43773;-78
2022/01/16 10:57:26;;;;;;;52.55;23.15;;;;;;;1.60;100.00;99468.42;4082319;86;43930;-75
2022/01/16 11:03:28;;;;;;;;;;;;;;;1.89;100.00;99453.89;4097916;86;28534;-74
2022/01/16 11:09:31;;;;;;;44.45;19.77;;;;;;;2.25;100.00;99442.64;4074934;86;43792;-83
2022/01/16 11:15:35;;;;;;;46.92;20.60;;;;;;;2.09;100.00;99426.56;4068986;85;28544;-83
2022/01/16 11:21:42;;;;;;;47.60;19.98;;;;;;;2.49;100.00;99408.09;4060806;86;43822;-82
2022/01/16 11:27:40;;;;;;;57.65;22.52;;;;;;;2.91;100.00;99400.82;4082717;86;28529;-78
2022/01/16 11:33:43;;;;;;;40.45;18.70;;;;;;;3.13;100.00;99396.26;4051208;85;28556;-82
2022/01/16 11:39:44;;;;;;;40.28;16.02;;;;;;;2.87;100.00;99394.72;4062368;86;44925;-70
2022/01/16 11:45:52;;;;;;;32.53;15.30;;;;;;;3.46;100.00;99391.59;4041224;85;28564;-74
2022/01/16 11:52:02;;;;;;;35.05;15.00;;;;;;;3.34;99.74;99396.47;4035569;86;28567;-74
2022/01/16 11:57:57;;;;;;;34.63;14.78;;;;;;;3.65;100.00;99383.33;4034827;86;28517;-70
2022/01/16 12:03:59;;;;;;;34.03;13.25;;;;;;;3.92;91.67;99387.78;4038076;86;28518;-74
2022/01/16 12:10:00;;;;;;;25.08;11.90;;;;;;;4.15;86.29;99386.40;4005529;86;28528;-72
2022/01/16 12:16:36;;;;;;;25.15;10.53;;;;;;;4.50;79.29;99386.73;3984822;86;28568;-72
2022/01/16 12:23:05;;;;;;;25.68;11.15;;;;;;;4.33;70.02;99384.75;4016072;86;28546;-73
2022/01/16 12:29:07;;;;;;;24.47;10.30;;;;;;;4.57;75.87;99374.84;4015367;86;28589;-72
2022/01/16 12:35:08;;;;;;;25.65;10.50;;;;;;;4.38;62.25;99379.70;4008771;86;28508;-73
2022/01/16 12:41:27;;;;;;;34.75;12.33;;;;;;;4.61;62.96;99376.12;4025837;86;28574;-73
2022/01/16 12:47:28;;;;;;;29.50;12.63;;;;;;;4.53;64.24;99368.22;4003016;86;28518;-74
2022/01/16 12:53:50;;;;;;;34.67;15.08;;;;;;;4.65;69.80;99365.44;4059485;86;28533;-72
2022/01/16 12:59:52;;;;;;;38.05;15.58;;;;;;;4.50;67.02;99361.44;4075335;86;28540;-72
2022/01/16 13:06:21;;;;;;;34.18;15.03;;;;;;;4.52;69.04;99351.92;4033475;86;28564;-74
2022/01/16 13:12:24;;;;;;;35.13;15.58;;;;;;;4.67;71.54;99339.44;4037584;86;28545;-74
2022/01/16 13:18:28;;;;;;;39.10;17.30;;;;;;;4.65;76.54;99328.64;4042803;86;28540;-71
2022/01/16 13:24:37;;;;;;;43.50;18.55;;;;;;;4.72;75.55;99323.71;4038312;86;28530;-73
2022/01/16 13:30:38;;;;;;;41.53;19.25;;;;;;;4.60;81.76;99319.38;4067753;84;28568;-72
2022/01/16 13:36:55;;;;;;;43.30;19.27;;;;;;;4.58;86.31;99308.59;4047719;86;28465;-72
2022/01/16 13:43:10;;;;;;;45.30;20.82;;;;;;;4.41;91.86;99292.80;4066417;86;28549;-73
2022/01/16 13:49:12;;;;;;;50.35;20.85;;;;;;;4.31;91.80;99282.93;4037004;86;28568;-74
2022/01/16 13:55:14;;;;;;;49.23;21.55;;;;;;;4.30;93.13;99279.45;4088429;85;28587;-75
2022/01/16 14:01:23;;;;;;;50.83;21.68;;;;;;;4.20;93.31;99264.27;4088087;85;28551;-73
2022/01/16 14:07:24;;;;;;;52.95;22.60;;;;;;;4.24;95.93;99256.75;4081324;85;28557;-80
2022/01/16 14:13:25;;;;;;;47.40;20.95;;;;;;;4.16;95.54;99254.98;4050152;85;28601;-76
2022/01/16 14:19:42;;;;;;;50.30;21.50;;;;;;;4.10;98.82;99243.77;4072990;85;28561;-74
2022/01/16 14:25:37;;;;;;;50.95;21.77;;;;;;;4.05;99.21;99239.80;4112505;84;28531;-76
2022/01/16 14:31:39;;;;;;;51.00;21.50;;;;;;;3.93;100.00;99221.31;4139297;84;28530;-71
2022/01/16 14:37:41;;;;;;;53.33;22.22;;;;;;;3.89;100.00;99223.52;4100541;85;28541;-73
2022/01/16 14:43:54;;;;;;;54.77;22.35;;;;;;;3.80;100.00;99207.84;4062885;85;28549;-71
2022/01/16 14:49:55;;;;;;;45.20;21.20;;;;;;;3.68;100.00;99197.66;4105827;85;28548;-77
2022/01/16 14:55:58;;;;;;;49.98;20.77;;;;;;;3.51;100.00;99197.48;4132040;84;28599;-79
2022/01/16 15:02:01;;;;;;;46.83;21.12;;;;;;;3.44;100.00;99190.25;4110997;84;28571;-80
2022/01/16 15:08:03;;;;;;;46.18;21.40;;;;;;;3.15;100.00;99185.19;4176765;84;28516;-78
2022/01/16 15:14:07;;;;;;;49.27;21.57;;;;;;;3.10;100.00;99174.77;4114295;85;28526;-79
2022/01/16 15:20:18;;;;;;;51.13;21.27;;;;;;;2.99;100.00;99162.23;4083898;85;28570;-79
2022/01/16 15:26:15;;;;;;;45.88;20.15;;;;;;;2.75;100.00;99165.91;4145520;84;28518;-80
2022/01/16 15:32:17;;;;;;;56.98;22.02;;;;;;;2.77;100.00;99172.70;4110331;85;28470;-78
2022/01/16 15:38:27;;;;;;;51.83;23.20;;;;;;;2.69;100.00;99174.08;4166778;83;28473;-77
2022/01/16 15:44:22;;;;;;;53.87;21.33;;;;;;;2.61;100.00;99174.12;4124646;84;28548;-79
2022/01/16 15:50:26;;;;;;;48.00;22.35;;;;;;;2.56;100.00;99180.47;4157890;84;28468;-78
2022/01/16 15:56:27;;;;;;;52.23;23.12;;;;;;;2.60;100.00;99186.59;4113272;84;28556;-80
2022/01/16 16:02:28;;;;;;;51.77;21.93;;;;;;;2.58;100.00;99193.06;4133199;84;28442;-81
2022/01/16 16:08:29;;;;;;;56.65;24.77;;;;;;;2.43;100.00;99192.47;4168328;84;28493;-80
2022/01/16 16:14:31;;;;;;;52.93;23.15;;;;;;;2.29;100.00;99190.08;4180876;84;28502;-80
2022/01/16 16:20:33;;;;;;;56.80;23.32;;;;;;;2.23;100.00;99184.13;4153631;84;28534;-79
2022/01/16 16:26:34;;;;;;;53.05;22.45;;;;;;;2.02;100.00;99180.72;4114108;85;28465;-80
2022/01/16 16:32:36;;;;;;;52.90;23.52;;;;;;;1.98;100.00;99188.22;4134625;85;28517;-77
2022/01/16 16:38:37;;;;;;;56.83;24.05;;;;;;;1.68;100.00;99187.97;4076104;86;28580;-78
2022/01/16 16:44:42;;;;;;;56.80;25.20;;;;;;;1.58;100.00;99182.84;4131580;84;28532;-77
2022/01/16 16:50:46;;;;;;;61.28;25.97;;;;;;;1.87;100.00;99191.20;4126296;84;28533;-78
2022/01/16 16:56:47;;;;;;;58.28;25.82;;;;;;;1.97;100.00;99199.80;4068815;85;28580;-79
2022/01/16 17:02:49;;;;;;;57.35;25.23;;;;;;;1.76;100.00;99203.02;4090925;85;28504;-79
2022/01/16 17:08:51;;;;;;;62.43;24.57;;;;;;;1.80;100.00;99217.58;4095311;85;43664;-79
2022/01/16 17:14:52;;;;;;;55.85;23.70;;;;;;;1.72;100.00;99213.61;4072904;85;28500;-79
2022/01/16 17:20:54;;;;;;;52.40;21.12;;;;;;;1.82;100.00;99210.28;4101508;85;28496;-81
2022/01/16 17:26:55;;;;;;;45.12;20.30;;;;;;;2.17;100.00;99200.72;4087405;85;28614;-78
2022/01/16 17:32:57;;;;;;;42.88;17.23;;;;;;;2.35;100.00;99202.63;4062890;85;29442;-74
2022/01/16 17:38:59;;;;;;;39.85;16.45;;;;;;;2.61;100.00;99203.33;4088245;85;28555;-78
2022/01/16 17:45:00;;;;;;;38.42;16.52;;;;;;;2.76;100.00;99208.22;4072115;85;28493;-80
2022/01/16 17:51:02;;;;;;;32.28;13.95;;;;;;;2.90;100.00;99225.72;4107040;84;28561;-80
2022/01/16 17:57:05;;;;;;;34.58;13.70;;;;;;;3.15;100.00;99220.22;4090500;85;28546;-78
2022/01/16 18:03:07;;;;;;;34.20;13.93;;;;;;;3.12;100.00;99233.34;4054481;85;28529;-78
2022/01/16 18:09:08;;;;;;;33.58;14.53;;;;;;;3.10;100.00;99228.72;4074048;85;28513;-79
2022/01/16 18:15:09;;;;;;;33.78;13.35;;;;;;;3.17;100.00;99240.30;4057503;85;28519;-77
2022/01/16 18:21:11;;;;;;;29.02;13.10;;;;;;;3.14;100.00;99243.80;4073783;85;28535;-78
2022/01/16 18:27:15;;;;;;;30.75;12.60;;;;;;;3.03;100.00;99236.58;4136207;84;28532;-80
2022/01/16 18:33:17;;;;;;;31.33;13.28;;;;;;;2.91;100.00;99252.59;4148588;84;28529;-80
2022/01/16 18:39:21;;;;;;;26.90;13.28;;;;;;;2.93;100.00;99265.20;4122271;84;28458;-77
2022/01/16 18:45:26;;;;;;;30.27;14.13;;;;;;;3.12;100.00;99273.72;4121022;84;28480;-75
2022/01/16 18:51:31;;;;;;;38.30;14.85;;;;;;;2.93;100.00;99285.95;4107140;85;28590;-83
2022/01/16 18:57:36;;;;;;;32.57;14.73;;;;;;;2.96;100.00;99286.09;4089707;85;28576;-73
2022/01/16 19:03:37;;;;;;;28.50;12.70;;;;;;;2.88;100.00;99297.59;4082364;85;28552;-83
2022/01/16 19:09:39;;;;;;;24.40;11.68;;;;;;;2.79;100.00;99288.85;4088679;85;28535;-85
2022/01/16 19:15:42;;;;;;;24.43;10.70;;;;;;;2.76;100.00;99303.81;4084220;85;28536;-80
2022/01/16 19:21:43;;;;;;;27.73;11.55;;;;;;;2.74;100.00;99291.70;4078103;85;28492;-79
2022/01/16 19:27:45;;;;;;;21.97;10.78;;;;;;;2.78;100.00;99302.30;4106109;85;44493;-80
2022/01/16 19:33:46;;;;;;;23.67;11.83;;;;;;;2.82;100.00;99308.09;4085845;85;28530;-79
2022/01/16 19:39:49;;;;;;;24.30;12.50;;;;;;;2.83;100.00;99303.10;4122538;84;28604;-80
2022/01/16 19:45:53;;;;;;;24.67;12.43;;;;;;;3.06;100.00;99307.13;4113259;85;28486;-81
2022/01/16 19:51:54;;;;;;;28.67;12.93;;;;;;;3.02;100.00;99318.60;4116421;84;28610;-83
2022/01/16 19:57:56;;;;;;;30.45;13.20;;;;;;;2.90;100.00;99310.19;4101692;85;28474;-82
2022/01/16 20:03:58;;;;;;;27.32;12.95;;;;;;;2.96;100.00;99325.13;4067645;86;28626;-81
2022/01/16 20:09:59;;;;;;;32.85;14.75;;;;;;;3.12;100.00;99334.83;4122089;84;28518;-83
2022/01/16 20:16:01;;;;;;;31.65;15.90;;;;;;;3.28;100.00;99320.61;4097654;84;28564;-80
2022/01/16 20:22:03;;;;;;;28.70;15.50;;;;;;;3.39;100.00;99336.66;4126907;84;28581;-82
2022/01/16 20:28:06;;;;;;;29.75;15.25;;;;;;;3.30;100.00;99337.20;4085515;85;28568;-79
2022/01/16 20:34:07;;;;;;;32.05;15.18;;;;;;;3.27;100.00;99343.69;4080532;85;28530;-83
2022/01/16 20:40:15;;;;;;;31.02;14.35;;;;;;;3.44;100.00;99339.11;4106856;85;28487;-80
2022/01/16 20:46:16;;;;;;;32.83;13.83;;;;;;;3.43;100.00;99340.61;4112292;84;28571;-79
2022/01/16 20:52:18;;;;;;;31.30;15.38;;;;;;;3.34;100.00;99328.70;4083338;85;28562;-74
2022/01/16 20:58:19;;;;;;;31.87;15.93;;;;;;;3.44;100.00;99338.27;4103550;85;28494;-74
2022/01/16 21:04:21;;;;;;;29.40;14.15;;;;;;;3.43;100.00;99334.77;4036230;86;28597;-77
2022/01/16 21:10:24;;;;;;;33.38;15.18;;;;;;;3.44;100.00;99332.47;4060682;86;28602;-85
2022/01/16 21:16:25;;;;;;;28.47;13.28;;;;;;;3.50;100.00;99333.59;4091906;85;28507;-84
2022/01/16 21:22:28;;;;;;;31.80;14.73;;;;;;;3.59;100.00;99333.85;4097878;85;28537;-79
2022/01/16 21:28:30;;;;;;;26.45;13.40;;;;;;;3.32;100.00;99328.05;4089998;85;28533;-75
2022/01/16 21:34:31;;;;;;;33.38;14.60;;;;;;;3.27;100.00;99322.42;4043077;85;28522;-77
2022/01/16 21:40:37;;;;;;;28.92;13.22;;;;;;;3.39;100.00;99308.75;4092606;84;28588;-75
2022/01/16 21:46:38;;;;;;;29.95;14.43;;;;;;;3.22;100.00;99315.50;4078245;84;28527;-78
2022/01/16 21:52:40;;;;;;;31.62;13.62;;;;;;;3.19;100.00;99300.72;4082465;85;28540;-78
2022/01/16 21:58:41;;;;;;;29.85;13.10;;;;;;;3.26;100.00;99304.02;4103640;84;28504;-79
2022/01/16 22:04:42;;;;;;;24.52;12.00;;;;;;;3.26;100.00;99296.86;4101902;84;28548;-76
2022/01/16 22:10:48;;;;;;;25.50;11.50;;;;;;;3.47;100.00;99292.23;4087813;84;28560;-76
2022/01/16 22:16:49;;;;;;;23.18;12.18;;;;;;;3.51;100.00;99294.52;4110482;84;28471;-76
2022/01/16 22:22:50;;;;;;;23.32;11.12;;;;;;;2.99;100.00;99296.38;4089965;84;28499;-77
2022/01/16 22:28:53;;;;;;;23.52;10.80;;;;;;;3.33;100.00;99291.16;4099990;84;28537;-77
2022/01/16 22:34:54;;;;;;;26.25;11.85;;;;;;;3.42;100.00;99303.07;4098515;84;28557;-77
2022/01/16 22:40:56;;;;;;;26.35;10.88;;;;;;;3.30;100.00;99299.50;4099383;84;28504;-79
2022/01/16 22:46:57;;;;;;;21.45;10.20;;;;;;;3.14;100.00;99301.77;4100334;84;28498;-77
2022/01/16 22:52:58;;;;;;;22.20;11.12;;;;;;;3.14;100.00;99288.97;4095308;84;28534;-78
2022/01/16 22:59:00;;;;;;;22.82;10.78;;;;;;;3.03;100.00;99288.89;4109582;84;28529;-76
2022/01/16 23:05:01;;;;;;;21.60;9.65;;;;;;;2.98;100.00;99292.56;4117433;84;28546;-76
2022/01/16 23:11:03;;;;;;;19.67;9.45;;;;;;;3.01;100.00;99294.86;4070723;85;28556;-75
2022/01/16 23:17:05;;;;;;;20.05;9.48;;;;;;;3.06;100.00;99294.66;4052950;85;28541;-73
2022/01/16 23:23:07;;;;;;;18.17;9.00;;;;;;;3.01;100.00;99297.52;4029484;86;28506;-75
2022/01/16 23:29:10;;;;;;;17.87;8.68;;;;;;;3.22;100.00;99294.23;4047929;86;28591;-75
2022/01/16 23:35:15;;;;;;;17.82;8.68;;;;;;;3.12;100.00;99298.44;4133595;84;28613;-76
2022/01/16 23:41:17;;;;;;;15.57;9.30;;;;;;;3.11;100.00;99274.20;4116825;85;34361;-76
2022/01/16 23:47:18;;;;;;;15.18;8.00;;;;;;;3.14;100.00;99274.36;4133358;85;28547;-76
2022/01/16 23:53:20;;;;;;;15.05;7.67;;;;;;;3.19;100.00;99268.84;4133603;84;28503;-76
2022/01/16 23:59:23;;;;;;;16.55;8.20;;;;;;;3.18;100.00;99277.81;4148794;84;28564;-76
